Time;durP1;ratioP1;P1;durP2;ratioP2;P2;SDS_P1;SDS_P2;PMS_P1;PMS_P2;Temp;Humidity;BMP_temperature;BMP_pressure;BME280_temperature;BME280_humidity;BME280_pressure;Samples;Min_cycle;Max_cycle;Signal;HPM_P1;HPM_P2
2021/12/29 00:00:27;;;;;;;;;10.67;6.00;;;;;;;;5135495;27;45475;-82
2021/12/29 00:02:53;;;;;;;;;6.50;4.25;;;;;;;;5135418;27;45485;-81
2021/12/29 00:05:19;;;;;;;;;9.25;7.25;;;;;;;;5135711;27;45348;-81
2021/12/29 00:07:44;;;;;;;;;5.50;4.50;;;;;;;;5116902;27;45403;-81
2021/12/29 00:10:10;;;;;;;;;7.67;6.33;;;;;;;;5116483;27;46973;-81
2021/12/29 00:12:40;;;;;;;;;4.25;4.00;;;;;;;;5116800;27;45929;-80
2021/12/29 00:15:07;;;;;;;;;6.75;5.50;;;;;;;;5136106;27;45570;-81
2021/12/29 00:17:32;;;;;;;;;7.00;5.25;;;;;;;;5116858;27;46136;-83
2021/12/29 00:19:57;;;;;;;;;5.33;5.00;;;;;;;;5116550;27;47106;-82
2021/12/29 00:22:22;;;;;;;;;10.33;7.00;;;;;;;;5135422;27;45724;-81
2021/12/29 00:24:48;;;;;;;;;6.67;5.00;;;;;;;;5116234;27;46069;-81
2021/12/29 00:27:13;;;;;;;;;6.33;5.00;;;;;;;;5116193;27;45499;-81
2021/12/29 00:29:39;;;;;;;;;6.00;4.75;;;;;;;;5135232;27;45799;-80
2021/12/29 00:32:04;;;;;;;;;6.75;6.00;;;;;;;;5116410;27;45522;-81
2021/12/29 00:34:29;;;;;;;;;6.25;5.00;;;;;;;;5116561;27;45432;-81
2021/12/29 00:36:54;;;;;;;;;6.33;5.00;;;;;;;;5116506;27;45286;-81
2021/12/29 00:39:20;;;;;;;;;7.67;6.00;;;;;;;;5134535;27;45631;-80
2021/12/29 00:41:45;;;;;;;;;5.67;4.33;;;;;;;;5116568;27;46028;-81
2021/12/29 00:44:10;;;;;;;;;5.33;4.00;;;;;;;;5116547;27;45462;-84
2021/12/29 00:46:39;;;;;;;;;6.00;3.00;;;;;;;;5134917;27;45610;-81
2021/12/29 00:49:04;;;;;;;;;8.00;5.50;;;;;;;;5134849;27;46600;-84
2021/12/29 00:51:30;;;;;;;;;6.50;6.00;;;;;;;;5135125;27;45322;-80
2021/12/29 00:53:55;;;;;;;;;5.67;4.33;;;;;;;;5134270;27;45403;-83
2021/12/29 00:56:22;;;;;;;;;5.00;4.50;;;;;;;;5134980;27;45347;-82
2021/12/29 00:58:47;;;;;;;;;5.50;5.50;;;;;;;;5115978;27;46781;-82
2021/12/29 01:01:12;;;;;;;;;6.75;5.75;;;;;;;;5135064;27;45386;-81
2021/12/29 01:03:38;;;;;;;;;10.00;5.25;;;;;;;;5116255;27;45407;-84
2021/12/29 01:06:04;;;;;;;;;6.25;4.00;;;;;;;;5134857;27;45449;-82
2021/12/29 01:08:29;;;;;;;;;5.25;4.25;;;;;;;;5134542;27;46174;-81
2021/12/29 01:10:54;;;;;;;;;5.25;5.00;;;;;;;;5115855;27;45460;-84
2021/12/29 01:13:29;;;;;;;;;4.00;4.00;;;;;;;;5116168;27;45286;-82
2021/12/29 01:18:32;;;;;;;;;9.75;5.25;;;;;;;;5134539;27;45333;-82
2021/12/29 01:20:57;;;;;;;;;5.00;4.00;;;;;;;;5115763;27;45419;-82
2021/12/29 01:23:24;;;;;;;;;10.00;6.00;;;;;;;;5134707;27;45442;-80
2021/12/29 01:25:49;;;;;;;;;5.75;5.25;;;;;;;;5115583;27;45632;-84
2021/12/29 01:28:14;;;;;;;;;9.33;7.00;;;;;;;;5115531;27;47191;-82
2021/12/29 01:30:39;;;;;;;;;9.00;6.00;;;;;;;;5115705;27;45700;-82
2021/12/29 01:33:06;;;;;;;;;7.67;5.67;;;;;;;;5134719;27;45519;-82
2021/12/29 01:35:35;;;;;;;;;4.25;4.25;;;;;;;;5134498;27;45619;-80
2021/12/29 01:38:01;;;;;;;;;5.50;3.25;;;;;;;;5135273;27;46496;-80
2021/12/29 01:40:26;;;;;;;;;6.75;5.50;;;;;;;;5137696;27;45406;-82
2021/12/29 01:42:52;;;;;;;;;6.00;5.75;;;;;;;;5138499;27;45612;-80
2021/12/29 01:45:17;;;;;;;;;8.50;6.50;;;;;;;;5138470;27;45653;-81
2021/12/29 01:47:42;;;;;;;;;6.33;4.00;;;;;;;;5137845;27;46442;-80
2021/12/29 01:50:09;;;;;;;;;5.50;4.00;;;;;;;;5119079;27;45374;-80
2021/12/29 01:52:38;;;;;;;;;5.00;5.00;;;;;;;;5119018;27;45458;-80
2021/12/29 01:55:05;;;;;;;;;10.25;5.00;;;;;;;;5118768;27;45358;-80
2021/12/29 01:57:30;;;;;;;;;6.50;6.00;;;;;;;;5118880;27;48598;-81
2021/12/29 01:59:55;;;;;;;;;7.00;4.00;;;;;;;;5118935;27;45931;-81
2021/12/29 02:02:20;;;;;;;;;6.67;5.00;;;;;;;;5137899;27;45599;-81
2021/12/29 02:04:46;;;;;;;;;6.00;5.00;;;;;;;;5118876;27;45622;-81
2021/12/29 02:07:12;;;;;;;;;7.00;6.50;;;;;;;;5137171;27;47115;-81
2021/12/29 02:09:38;;;;;;;;;5.00;4.00;;;;;;;;5137241;27;45312;-81
2021/12/29 02:12:04;;;;;;;;;5.00;5.00;;;;;;;;5137663;27;46053;-80
2021/12/29 02:14:29;;;;;;;;;2.75;2.00;;;;;;;;5118859;27;45407;-80
2021/12/29 02:16:55;;;;;;;;;7.25;5.00;;;;;;;;5118501;27;48557;-80
2021/12/29 02:19:20;;;;;;;;;4.67;4.00;;;;;;;;5118761;27;45753;-80
2021/12/29 02:21:56;;;;;;;;;6.50;6.00;;;;;;;;5137379;27;45345;-82
2021/12/29 02:24:35;;;;;;;;;5.00;4.00;;;;;;;;5137443;27;45714;-80
2021/12/29 02:27:01;;;;;;;;;7.00;5.25;;;;;;;;5137299;27;45464;-81
2021/12/29 02:29:27;;;;;;;;;4.75;4.00;;;;;;;;5118465;27;45841;-81
2021/12/29 02:31:52;;;;;;;;;9.00;5.00;;;;;;;;5136979;27;45473;-79
2021/12/29 02:34:17;;;;;;;;;5.00;4.00;;;;;;;;5137298;27;45366;-80
2021/12/29 02:36:44;;;;;;;;;5.33;4.67;;;;;;;;5118215;27;48112;-80
2021/12/29 02:39:11;;;;;;;;;5.00;3.25;;;;;;;;5117915;27;45974;-81
2021/12/29 02:41:39;;;;;;;;;5.00;3.75;;;;;;;;5136858;27;45344;-80
2021/12/29 02:44:04;;;;;;;;;7.00;5.25;;;;;;;;5136931;27;45256;-80
2021/12/29 02:46:31;;;;;;;;;3.25;2.75;;;;;;;;5136732;27;46429;-80
2021/12/29 02:49:02;;;;;;;;;4.75;3.75;;;;;;;;5117781;27;45510;-81
2021/12/29 02:51:27;;;;;;;;;5.00;4.00;;;;;;;;5137002;27;45398;-81
2021/12/29 02:53:53;;;;;;;;;7.25;4.50;;;;;;;;5117485;27;45408;-84
2021/12/29 02:56:18;;;;;;;;;6.00;3.25;;;;;;;;5136427;27;46710;-84
2021/12/29 02:58:44;;;;;;;;;4.25;3.75;;;;;;;;5118108;27;45381;-83
2021/12/29 03:01:11;;;;;;;;;6.25;4.75;;;;;;;;5118130;27;45355;-84
2021/12/29 03:03:37;;;;;;;;;5.75;4.00;;;;;;;;5118162;27;45443;-81
2021/12/29 03:06:03;;;;;;;;;4.75;4.25;;;;;;;;5117959;27;47210;-84
2021/12/29 03:08:28;;;;;;;;;4.50;3.50;;;;;;;;5136152;27;45439;-81
2021/12/29 03:10:54;;;;;;;;;4.00;3.33;;;;;;;;5118247;27;45434;-84
2021/12/29 03:13:29;;;;;;;;;5.00;4.00;;;;;;;;5136409;27;45345;-80
2021/12/29 03:15:55;;;;;;;;;4.25;3.00;;;;;;;;5136583;27;45543;-83
2021/12/29 03:18:21;;;;;;;;;5.25;4.00;;;;;;;;5136540;27;45956;-85
2021/12/29 03:20:47;;;;;;;;;4.50;3.50;;;;;;;;5118058;27;45361;-82
2021/12/29 03:23:13;;;;;;;;;3.00;2.00;;;;;;;;5136559;27;45410;-81
2021/12/29 03:25:38;;;;;;;;;4.00;3.25;;;;;;;;5117025;27;47991;-84
2021/12/29 03:28:04;;;;;;;;;3.00;3.00;;;;;;;;5117455;27;45515;-83
2021/12/29 03:30:35;;;;;;;;;4.75;2.50;;;;;;;;5117655;27;45414;-82
2021/12/29 03:33:04;;;;;;;;;5.00;4.00;;;;;;;;5117643;27;45335;-82
2021/12/29 03:35:30;;;;;;;;;3.00;2.75;;;;;;;;5117710;27;46320;-85
2021/12/29 03:37:55;;;;;;;;;5.50;4.25;;;;;;;;5117373;27;45846;-82
2021/12/29 03:40:20;;;;;;;;;5.00;5.00;;;;;;;;5117081;27;45395;-83
2021/12/29 03:42:45;;;;;;;;;5.00;4.00;;;;;;;;5117391;27;45269;-81
2021/12/29 03:45:11;;;;;;;;;2.33;2.00;;;;;;;;5117091;27;47919;-83
2021/12/29 03:47:36;;;;;;;;;3.50;2.00;;;;;;;;5135530;27;45401;-84
2021/12/29 03:50:02;;;;;;;;;4.50;3.00;;;;;;;;5135863;27;45428;-83
2021/12/29 03:52:27;;;;;;;;;7.00;4.00;;;;;;;;5135807;27;45368;-81
2021/12/29 03:54:53;;;;;;;;;3.33;2.00;;;;;;;;5116542;27;47866;-85
2021/12/29 03:57:18;;;;;;;;;4.00;4.00;;;;;;;;5135942;27;45339;-80
2021/12/29 03:59:43;;;;;;;;;3.67;3.00;;;;;;;;5136044;27;45431;-81
2021/12/29 04:02:11;;;;;;;;;3.33;3.33;;;;;;;;5116114;27;45481;-80
2021/12/29 04:04:37;;;;;;;;;4.25;2.50;;;;;;;;5135579;27;45335;-80
2021/12/29 04:07:02;;;;;;;;;3.00;2.33;;;;;;;;5135665;27;45481;-81
2021/12/29 04:09:27;;;;;;;;;4.50;2.25;;;;;;;;5116208;27;45491;-81
2021/12/29 04:11:52;;;;;;;;;2.00;2.00;;;;;;;;5135681;27;45300;-81
2021/12/29 04:14:19;;;;;;;;;4.00;2.00;;;;;;;;5135336;27;46874;-80
2021/12/29 04:16:46;;;;;;;;;5.25;3.50;;;;;;;;5135482;27;45359;-80
2021/12/29 04:19:17;;;;;;;;;4.75;3.00;;;;;;;;5116429;27;45332;-81
2021/12/29 04:21:44;;;;;;;;;4.25;3.25;;;;;;;;5135381;27;45507;-81
2021/12/29 04:24:10;;;;;;;;;3.00;3.00;;;;;;;;5116202;27;48320;-80
2021/12/29 04:26:37;;;;;;;;;2.75;2.00;;;;;;;;5135599;27;45649;-81
2021/12/29 04:29:03;;;;;;;;;2.00;2.00;;;;;;;;5135426;27;45492;-80
2021/12/29 04:31:28;;;;;;;;;2.00;2.00;;;;;;;;5135276;27;45481;-80
2021/12/29 04:33:53;;;;;;;;;4.33;3.00;;;;;;;;5134925;27;46407;-81
2021/12/29 04:36:24;;;;;;;;;4.00;3.00;;;;;;;;5134875;27;45296;-80
2021/12/29 04:38:49;;;;;;;;;5.75;3.25;;;;;;;;5116499;27;45606;-80
2021/12/29 04:41:14;;;;;;;;;2.50;2.50;;;;;;;;5116312;27;45460;-80
2021/12/29 04:43:39;;;;;;;;;2.00;2.00;;;;;;;;5134952;27;45376;-80
2021/12/29 04:46:05;;;;;;;;;2.00;2.00;;;;;;;;5135038;27;45498;-80
2021/12/29 04:48:37;;;;;;;;;3.00;2.00;;;;;;;;5135109;27;45297;-80
2021/12/29 04:51:05;;;;;;;;;3.00;2.00;;;;;;;;5116052;27;45283;-80
2021/12/29 04:53:31;;;;;;;;;7.00;5.00;;;;;;;;5115449;27;48256;-80
2021/12/29 04:55:56;;;;;;;;;3.00;3.00;;;;;;;;5134738;27;45431;-81
2021/12/29 04:58:21;;;;;;;;;2.33;2.00;;;;;;;;5134752;27;45419;-80
2021/12/29 05:00:47;;;;;;;;;3.00;3.00;;;;;;;;5116159;27;45584;-81
2021/12/29 05:03:13;;;;;;;;;4.25;3.25;;;;;;;;5134781;27;45533;-81
2021/12/29 05:05:52;;;;;;;;;7.50;5.25;;;;;;;;5134449;27;45405;-84
2021/12/29 05:08:26;;;;;;;;;4.00;4.00;;;;;;;;5134471;27;45323;-82
2021/12/29 05:10:55;;;;;;;;;5.25;4.00;;;;;;;;5135051;27;45404;-82
2021/12/29 05:13:20;;;;;;;;;4.00;3.25;;;;;;;;5130922;27;46475;-81
2021/12/29 05:15:46;;;;;;;;;3.25;3.00;;;;;;;;5119773;27;45548;-83
2021/12/29 05:18:11;;;;;;;;;3.75;3.75;;;;;;;;5120260;27;46027;-83
2021/12/29 05:20:36;;;;;;;;;5.67;3.00;;;;;;;;5119948;27;45457;-84
2021/12/29 05:23:02;;;;;;;;;3.75;3.25;;;;;;;;5119417;27;48589;-82
2021/12/29 05:25:27;;;;;;;;;3.00;3.00;;;;;;;;5138093;27;45441;-81
2021/12/29 05:27:53;;;;;;;;;4.75;4.00;;;;;;;;5119624;27;45376;-85
2021/12/29 05:30:19;;;;;;;;;4.00;3.50;;;;;;;;5138196;27;45551;-80
2021/12/29 05:32:44;;;;;;;;;3.00;3.00;;;;;;;;5118985;27;47947;-84
2021/12/29 05:35:10;;;;;;;;;4.00;4.00;;;;;;;;5138141;27;45375;-84
2021/12/29 05:37:35;;;;;;;;;5.00;5.00;;;;;;;;5138193;27;45393;-81
2021/12/29 05:40:01;;;;;;;;;5.00;5.00;;;;;;;;5137371;27;45536;-80
2021/12/29 05:42:26;;;;;;;;;5.00;5.00;;;;;;;;5119033;27;47168;-81
2021/12/29 05:44:51;;;;;;;;;5.33;4.67;;;;;;;;5138005;27;45381;-84
2021/12/29 05:47:16;;;;;;;;;2.33;2.33;;;;;;;;5137753;27;45385;-85
2021/12/29 05:49:42;;;;;;;;;3.00;2.50;;;;;;;;5137831;27;45503;-83
2021/12/29 05:52:07;;;;;;;;;3.33;3.00;;;;;;;;5137798;27;46428;-81
2021/12/29 05:54:32;;;;;;;;;2.75;2.50;;;;;;;;5137083;27;45384;-80
2021/12/29 05:56:58;;;;;;;;;2.00;2.00;;;;;;;;5137985;27;45475;-83
2021/12/29 05:59:23;;;;;;;;;3.75;2.50;;;;;;;;5137502;27;45351;-84
2021/12/29 06:01:49;;;;;;;;;2.00;2.00;;;;;;;;5137653;27;48140;-84
2021/12/29 06:04:14;;;;;;;;;5.00;3.00;;;;;;;;5137942;27;45597;-84
2021/12/29 06:06:39;;;;;;;;;3.00;3.00;;;;;;;;5137546;27;45503;-81
2021/12/29 06:09:04;;;;;;;;;3.00;3.00;;;;;;;;5118438;27;45451;-82
2021/12/29 06:11:30;;;;;;;;;3.00;3.00;;;;;;;;5118948;27;47157;-81
2021/12/29 06:13:55;;;;;;;;;3.00;2.75;;;;;;;;5137849;27;45673;-81
2021/12/29 06:16:20;;;;;;;;;4.67;4.67;;;;;;;;5137528;27;45459;-83
2021/12/29 06:18:45;;;;;;;;;3.00;3.00;;;;;;;;5137403;27;45650;-81
2021/12/29 06:21:16;;;;;;;;;4.00;4.00;;;;;;;;5118344;27;48253;-81
2021/12/29 06:23:42;;;;;;;;;5.00;3.00;;;;;;;;5136141;27;45476;-80
2021/12/29 06:26:07;;;;;;;;;4.00;4.00;;;;;;;;5118446;27;45277;-80
2021/12/29 06:28:32;;;;;;;;;5.00;5.00;;;;;;;;5118946;27;45847;-81
2021/12/29 06:30:57;;;;;;;;;7.00;5.33;;;;;;;;5118457;27;47277;-81
2021/12/29 06:33:22;;;;;;;;;4.00;4.00;;;;;;;;5118302;27;45376;-80
2021/12/29 06:35:47;;;;;;;;;6.00;6.00;;;;;;;;5118566;27;45414;-81
2021/12/29 06:38:13;;;;;;;;;7.00;5.33;;;;;;;;5118121;27;45375;-81
2021/12/29 06:40:38;;;;;;;;;5.33;5.33;;;;;;;;5136589;27;46937;-81
2021/12/29 06:43:03;;;;;;;;;5.67;4.67;;;;;;;;5136948;27;45371;-81
2021/12/29 06:45:29;;;;;;;;;4.67;4.00;;;;;;;;5136888;27;45274;-81
2021/12/29 06:47:54;;;;;;;;;3.00;3.00;;;;;;;;5137018;27;45519;-80
2021/12/29 06:50:20;;;;;;;;;3.25;3.00;;;;;;;;5136848;27;46368;-81
2021/12/29 06:52:46;;;;;;;;;6.00;5.33;;;;;;;;5136801;27;45432;-81
2021/12/29 06:55:11;;;;;;;;;4.00;4.00;;;;;;;;5118118;27;45530;-80
2021/12/29 06:57:36;;;;;;;;;4.00;4.00;;;;;;;;5118085;27;45304;-80
2021/12/29 07:00:03;;;;;;;;;5.00;4.33;;;;;;;;5136640;27;46337;-80
2021/12/29 07:02:28;;;;;;;;;6.00;5.25;;;;;;;;5118023;27;45710;-81
2021/12/29 07:04:54;;;;;;;;;3.00;3.00;;;;;;;;5136883;27;45309;-80
2021/12/29 07:07:19;;;;;;;;;3.00;3.00;;;;;;;;5136406;27;45340;-80
2021/12/29 07:09:44;;;;;;;;;3.00;3.00;;;;;;;;5136098;27;45501;-81
2021/12/29 07:12:09;;;;;;;;;3.33;3.00;;;;;;;;5136502;27;45309;-80
2021/12/29 07:14:37;;;;;;;;;4.00;4.00;;;;;;;;5136987;27;45583;-80
2021/12/29 07:17:03;;;;;;;;;4.00;3.50;;;;;;;;5136958;27;45707;-81
2021/12/29 07:19:28;;;;;;;;;4.25;4.00;;;;;;;;5136376;27;45466;-83
2021/12/29 07:21:53;;;;;;;;;5.00;4.67;;;;;;;;5117698;27;46326;-83
2021/12/29 07:24:18;;;;;;;;;3.00;3.00;;;;;;;;5117546;27;45328;-81
2021/12/29 07:26:44;;;;;;;;;6.33;5.33;;;;;;;;5117761;27;45312;-85
2021/12/29 07:29:09;;;;;;;;;5.00;5.00;;;;;;;;5117327;27;47044;-81
2021/12/29 07:31:35;;;;;;;;;4.50;4.00;;;;;;;;5136359;27;45453;-84
2021/12/29 07:34:00;;;;;;;;;6.50;5.50;;;;;;;;5136355;27;45376;-80
2021/12/29 07:36:25;;;;;;;;;5.00;4.75;;;;;;;;5116477;27;45381;-84
2021/12/29 07:38:51;;;;;;;;;3.75;3.50;;;;;;;;5117042;27;47487;-81
2021/12/29 07:41:16;;;;;;;;;3.75;3.25;;;;;;;;5136116;27;45532;-82
2021/12/29 07:43:42;;;;;;;;;5.50;3.50;;;;;;;;5117452;27;45480;-83
2021/12/29 07:46:07;;;;;;;;;4.00;4.00;;;;;;;;5117437;27;45331;-81
2021/12/29 07:48:33;;;;;;;;;7.75;5.00;;;;;;;;5135818;27;45614;-83
2021/12/29 07:50:59;;;;;;;;;4.50;4.00;;;;;;;;5135881;27;45449;-83
2021/12/29 07:53:25;;;;;;;;;4.00;3.00;;;;;;;;5116680;27;45372;-84
2021/12/29 07:55:50;;;;;;;;;7.33;6.00;;;;;;;;5136310;27;45615;-82
2021/12/29 07:58:15;;;;;;;;;9.75;8.25;;;;;;;;5135821;27;45494;-81
2021/12/29 08:00:42;;;;;;;;;7.00;7.00;;;;;;;;5135877;27;45414;-84
2021/12/29 08:03:07;;;;;;;;;6.00;5.00;;;;;;;;5117217;27;45473;-82
2021/12/29 08:05:32;;;;;;;;;5.33;5.33;;;;;;;;5136300;27;45545;-83
2021/12/29 08:07:57;;;;;;;;;7.00;6.00;;;;;;;;5135298;27;46478;-82
2021/12/29 08:10:23;;;;;;;;;5.00;4.33;;;;;;;;5135086;27;45240;-83
2021/12/29 08:12:48;;;;;;;;;4.00;4.00;;;;;;;;5117059;27;45309;-80
2021/12/29 08:15:14;;;;;;;;;7.75;6.75;;;;;;;;5116786;27;45544;-84
2021/12/29 08:17:40;;;;;;;;;6.00;6.00;;;;;;;;5135432;27;46407;-81
2021/12/29 08:20:05;;;;;;;;;6.00;6.00;;;;;;;;5135733;27;45565;-82
2021/12/29 08:22:31;;;;;;;;;7.25;7.25;;;;;;;;5116719;27;45534;-81
2021/12/29 08:24:56;;;;;;;;;7.00;6.25;;;;;;;;5135224;27;45280;-81
2021/12/29 08:27:22;;;;;;;;;6.00;5.00;;;;;;;;5135561;27;45657;-84
2021/12/29 08:29:48;;;;;;;;;5.75;5.50;;;;;;;;5135322;27;45348;-85
2021/12/29 08:32:13;;;;;;;;;10.75;8.50;;;;;;;;5116699;27;45454;-80
2021/12/29 08:34:39;;;;;;;;;6.67;6.00;;;;;;;;5116604;27;45405;-81
2021/12/29 08:37:04;;;;;;;;;6.50;6.00;;;;;;;;5116428;27;45482;-82
2021/12/29 08:39:29;;;;;;;;;8.33;7.67;;;;;;;;5134813;27;45507;-81
2021/12/29 08:41:55;;;;;;;;;11.00;10.00;;;;;;;;5116139;27;45320;-85
2021/12/29 08:44:20;;;;;;;;;8.67;7.67;;;;;;;;5135323;27;45702;-81
2021/12/29 08:46:46;;;;;;;;;10.33;10.00;;;;;;;;5134792;27;45614;-80
2021/12/29 08:49:12;;;;;;;;;15.25;12.00;;;;;;;;5135209;27;45514;-84
2021/12/29 08:51:37;;;;;;;;;8.25;8.25;;;;;;;;5116558;27;45495;-81
2021/12/29 08:54:02;;;;;;;;;13.00;11.33;;;;;;;;5115670;27;45450;-81
2021/12/29 08:56:27;;;;;;;;;11.00;10.33;;;;;;;;5134971;27;45427;-80
2021/12/29 08:58:53;;;;;;;;;11.00;11.00;;;;;;;;5115927;27;45457;-81
2021/12/29 09:01:19;;;;;;;;;8.00;8.00;;;;;;;;5134697;27;45418;-81
2021/12/29 09:03:44;;;;;;;;;11.00;8.50;;;;;;;;5134750;27;45727;-81
2021/12/29 09:06:10;;;;;;;;;8.67;8.00;;;;;;;;5116006;27;48151;-80
2021/12/29 09:08:36;;;;;;;;;8.25;7.25;;;;;;;;5134162;27;45851;-80
2021/12/29 09:11:01;;;;;;;;;9.00;7.50;;;;;;;;5116256;27;45467;-81
2021/12/29 09:13:26;;;;;;;;;7.67;7.33;;;;;;;;5135064;27;45269;-80
2021/12/29 09:15:56;;;;;;;;;8.00;7.00;;;;;;;;5115880;27;46193;-80
2021/12/29 09:18:23;;;;;;;;;8.50;8.50;;;;;;;;5116318;27;45674;-80
2021/12/29 09:20:48;;;;;;;;;8.00;8.00;;;;;;;;5116292;27;45629;-81
2021/12/29 09:23:14;;;;;;;;;11.50;11.25;;;;;;;;5116093;27;45487;-80
2021/12/29 09:25:41;;;;;;;;;12.25;11.25;;;;;;;;5134270;27;46467;-80
2021/12/29 09:28:06;;;;;;;;;8.50;8.50;;;;;;;;5134848;27;45446;-83
2021/12/29 09:30:33;;;;;;;;;11.50;10.25;;;;;;;;5134740;27;45448;-82
2021/12/29 09:32:58;;;;;;;;;9.75;8.50;;;;;;;;5115993;27;45430;-84
2021/12/29 09:35:23;;;;;;;;;8.00;8.00;;;;;;;;5134722;27;45905;-84
2021/12/29 09:37:50;;;;;;;;;9.25;9.25;;;;;;;;5115816;27;45721;-81
2021/12/29 09:40:16;;;;;;;;;7.25;7.25;;;;;;;;5134424;27;45543;-83
2021/12/29 09:42:41;;;;;;;;;9.25;9.25;;;;;;;;5115326;27;45681;-81
2021/12/29 09:45:07;;;;;;;;;11.00;11.00;;;;;;;;5134324;27;45384;-82
2021/12/29 09:47:34;;;;;;;;;10.75;9.25;;;;;;;;5115540;27;45761;-81
2021/12/29 09:49:59;;;;;;;;;11.00;9.00;;;;;;;;5115780;27;45414;-81
2021/12/29 09:52:29;;;;;;;;;9.50;9.50;;;;;;;;5134324;27;45396;-82
2021/12/29 09:54:55;;;;;;;;;9.00;8.25;;;;;;;;5111425;27;46574;-81
2021/12/29 09:57:20;;;;;;;;;10.00;9.25;;;;;;;;5113691;27;45502;-82
2021/12/29 09:59:45;;;;;;;;;8.00;7.00;;;;;;;;5115675;27;45650;-85
2021/12/29 10:02:11;;;;;;;;;10.67;10.67;;;;;;;;5115140;27;45572;-82
2021/12/29 10:04:37;;;;;;;;;17.25;15.75;;;;;;;;5116766;27;45413;-81
2021/12/29 10:07:16;;;;;;;;;13.25;12.25;;;;;;;;5115286;27;45837;-81
2021/12/29 10:09:41;;;;;;;;;14.75;12.75;;;;;;;;5114923;27;45472;-83
2021/12/29 10:12:09;;;;;;;;;12.00;9.67;;;;;;;;5116796;27;45373;-83
2021/12/29 10:14:34;;;;;;;;;12.50;11.50;;;;;;;;5115042;27;47057;-85
2021/12/29 10:16:59;;;;;;;;;13.00;12.00;;;;;;;;5115240;27;45493;-81
2021/12/29 10:19:25;;;;;;;;;7.00;6.00;;;;;;;;5115236;27;45287;-82
2021/12/29 10:21:50;;;;;;;;;8.25;8.00;;;;;;;;5115169;27;45472;-80
2021/12/29 10:24:17;;;;;;;;;6.50;6.00;;;;;;;;5114797;27;48226;-84
2021/12/29 10:26:47;;;;;;;;;5.50;5.00;;;;;;;;5115049;27;45310;-81
2021/12/29 10:29:14;;;;;;;;;5.25;5.00;;;;;;;;5116600;27;45459;-83
2021/12/29 10:31:42;;;;;;;;;5.75;5.75;;;;;;;;5115264;27;45502;-82
2021/12/29 10:34:09;;;;;;;;;6.00;6.00;;;;;;;;5115216;27;48123;-85
2021/12/29 10:36:37;;;;;;;;;6.75;6.75;;;;;;;;5116549;27;45947;-81
2021/12/29 10:39:13;;;;;;;;;9.00;8.00;;;;;;;;5116048;27;45326;-81
2021/12/29 10:41:55;;;;;;;;;5.00;5.00;;;;;;;;5114902;27;45568;-81
2021/12/29 10:44:40;;;;;;;;;4.50;4.25;;;;;;;;5116322;27;45368;-83
2021/12/29 10:47:22;;;;;;;;;5.00;5.00;;;;;;;;5114195;27;45366;-84
2021/12/29 10:49:49;;;;;;;;;5.00;5.00;;;;;;;;5115011;27;45267;-81
2021/12/29 10:52:15;;;;;;;;;3.25;3.00;;;;;;;;5116304;27;45530;-84
2021/12/29 10:54:40;;;;;;;;;3.33;2.67;;;;;;;;5114201;27;47250;-82
2021/12/29 10:57:07;;;;;;;;;3.00;3.00;;;;;;;;5115871;27;45451;-83
2021/12/29 10:59:34;;;;;;;;;3.00;3.00;;;;;;;;5114865;27;45388;-82
2021/12/29 11:02:03;;;;;;;;;1.50;1.50;;;;;;;;5114726;27;45605;-81
2021/12/29 11:04:28;;;;;;;;;1.50;1.50;;;;;;;;5114275;27;47164;-81
2021/12/29 11:06:57;;;;;;;;;1.50;1.50;;;;;;;;5116208;27;45407;-80
2021/12/29 11:09:25;;;;;;;;;1.50;1.50;;;;;;;;5114255;27;45542;-81
2021/12/29 11:11:50;;;;;;;;;2.00;2.00;;;;;;;;5115837;27;45407;-81
2021/12/29 11:14:17;;;;;;;;;0.67;0.00;;;;;;;;5114720;27;47545;-80
2021/12/29 11:16:44;;;;;;;;;2.00;1.00;;;;;;;;5115966;27;45908;-81
2021/12/29 11:19:09;;;;;;;;;2.00;2.00;;;;;;;;5114454;27;45553;-81
2021/12/29 11:21:37;;;;;;;;;1.00;1.00;;;;;;;;5115843;27;45589;-82
2021/12/29 11:24:11;;;;;;;;;1.00;1.00;;;;;;;;5115291;27;45310;-80
2021/12/29 11:26:36;;;;;;;;;2.00;2.00;;;;;;;;5115781;27;45948;-80
2021/12/29 11:29:05;;;;;;;;;1.25;1.25;;;;;;;;5115629;27;45569;-81
2021/12/29 11:31:39;;;;;;;;;1.75;1.25;;;;;;;;5116027;27;45737;-81
2021/12/29 11:34:12;;;;;;;;;2.25;2.00;;;;;;;;5113668;27;48492;-80
2021/12/29 11:36:37;;;;;;;;;2.50;1.50;;;;;;;;5115409;27;46013;-81
2021/12/29 11:39:02;;;;;;;;;3.33;2.67;;;;;;;;5114850;27;45395;-82
2021/12/29 11:41:27;;;;;;;;;1.00;1.00;;;;;;;;5114034;27;45350;-85
2021/12/29 11:43:53;;;;;;;;;1.00;1.00;;;;;;;;5113756;27;48540;-81
2021/12/29 11:46:23;;;;;;;;;1.33;1.33;;;;;;;;5113830;27;45454;-82
2021/12/29 11:48:49;;;;;;;;;2.00;2.00;;;;;;;;5115227;27;45470;-82
2021/12/29 11:51:16;;;;;;;;;2.50;2.50;;;;;;;;5113747;27;45522;-84
2021/12/29 11:54:07;;;;;;;;;1.25;1.25;;;;;;;;5124294;27;46455;-84
2021/12/29 11:56:39;;;;;;;;;0.00;0.00;;;;;;;;5112083;27;45869;-83
2021/12/29 11:59:04;;;;;;;;;1.00;1.00;;;;;;;;5117540;27;45578;-81
2021/12/29 12:01:30;;;;;;;;;1.00;1.00;;;;;;;;5117164;27;45349;-83
2021/12/29 12:03:57;;;;;;;;;1.50;1.00;;;;;;;;5135194;27;48145;-84
2021/12/29 12:06:28;;;;;;;;;1.00;1.00;;;;;;;;5135863;27;45889;-81
2021/12/29 12:09:25;;;;;;;;;1.50;1.00;;;;;;;;5135323;27;45543;-83
2021/12/29 12:11:51;;;;;;;;;2.75;2.00;;;;;;;;5060350;27;45546;-84
2021/12/29 12:14:18;;;;;;;;;2.00;2.00;;;;;;;;5116622;27;47107;-85
2021/12/29 12:16:50;;;;;;;;;1.00;1.00;;;;;;;;5135853;27;45976;-81
2021/12/29 12:19:23;;;;;;;;;2.50;2.00;;;;;;;;5117205;27;45375;-81
2021/12/29 12:21:49;;;;;;;;;2.50;2.50;;;;;;;;5134851;27;45416;-85
2021/12/29 12:24:16;;;;;;;;;3.00;3.00;;;;;;;;5134985;27;45441;-82
2021/12/29 12:26:49;;;;;;;;;2.75;2.00;;;;;;;;5116547;27;45334;-82
2021/12/29 12:29:14;;;;;;;;;2.00;2.00;;;;;;;;5135444;27;45304;-84
2021/12/29 12:31:39;;;;;;;;;1.75;1.75;;;;;;;;5135521;27;45335;-84
2021/12/29 12:34:13;;;;;;;;;2.75;2.00;;;;;;;;5135304;27;45500;-82
2021/12/29 12:36:42;;;;;;;;;1.50;1.50;;;;;;;;5135431;27;45519;-82
2021/12/29 12:39:12;;;;;;;;;2.00;2.00;;;;;;;;5134728;27;45434;-82
2021/12/29 12:41:39;;;;;;;;;3.00;2.00;;;;;;;;5130294;27;45601;-81
2021/12/29 12:44:04;;;;;;;;;2.00;2.00;;;;;;;;5134963;27;47241;-82
2021/12/29 12:46:32;;;;;;;;;1.33;1.33;;;;;;;;5135155;27;45544;-83
2021/12/29 12:48:58;;;;;;;;;2.50;1.75;;;;;;;;5116435;27;45435;-84
2021/12/29 12:51:23;;;;;;;;;1.00;1.00;;;;;;;;5135127;27;45376;-81
2021/12/29 12:53:48;;;;;;;;;2.50;1.75;;;;;;;;5134314;27;46379;-84
2021/12/29 12:56:16;;;;;;;;;1.00;1.00;;;;;;;;5116303;27;45371;-81
2021/12/29 12:58:44;;;;;;;;;2.00;2.00;;;;;;;;5116330;27;45645;-81
2021/12/29 13:01:17;;;;;;;;;3.00;3.00;;;;;;;;5116562;27;45431;-85
2021/12/29 13:03:43;;;;;;;;;3.00;3.00;;;;;;;;5134739;27;45576;-81
2021/12/29 13:06:13;;;;;;;;;3.25;3.00;;;;;;;;5116006;27;46104;-82
2021/12/29 13:08:40;;;;;;;;;2.75;2.25;;;;;;;;5134101;27;45483;-80
2021/12/29 13:11:07;;;;;;;;;2.00;2.00;;;;;;;;5115980;27;45564;-84
2021/12/29 13:13:34;;;;;;;;;3.00;3.00;;;;;;;;5134544;27;46518;-81
2021/12/29 13:16:01;;;;;;;;;1.75;1.00;;;;;;;;5116138;27;46318;-81
2021/12/29 13:18:26;;;;;;;;;3.25;3.00;;;;;;;;5115984;27;45392;-81
2021/12/29 13:21:14;;;;;;;;;1.00;1.00;;;;;;;;5115973;27;45379;-83
2021/12/29 13:23:39;;;;;;;;;1.50;1.50;;;;;;;;5134142;27;45504;-81
2021/12/29 13:26:06;;;;;;;;;1.50;1.50;;;;;;;;5115687;27;45655;-81
2021/12/29 13:28:33;;;;;;;;;1.25;1.25;;;;;;;;5134515;27;45387;-82
2021/12/29 13:31:01;;;;;;;;;2.75;2.75;;;;;;;;5116073;27;45359;-81
2021/12/29 13:33:27;;;;;;;;;2.75;2.00;;;;;;;;5134334;27;45528;-80
2021/12/29 13:35:53;;;;;;;;;1.00;1.00;;;;;;;;5119282;27;46185;-80
2021/12/29 13:38:19;;;;;;;;;3.00;3.00;;;;;;;;5118920;27;45442;-81
2021/12/29 13:40:47;;;;;;;;;2.00;2.00;;;;;;;;5119498;27;45509;-81
2021/12/29 13:43:15;;;;;;;;;2.00;2.00;;;;;;;;5137816;27;46461;-81
2021/12/29 13:45:40;;;;;;;;;2.00;2.00;;;;;;;;5119067;27;45994;-82
2021/12/29 13:48:11;;;;;;;;;1.00;1.00;;;;;;;;5119168;27;45387;-83
2021/12/29 13:50:36;;;;;;;;;2.00;2.00;;;;;;;;5119222;27;45530;-85
2021/12/29 13:53:04;;;;;;;;;3.00;2.00;;;;;;;;5137134;27;47730;-81
2021/12/29 13:55:32;;;;;;;;;1.50;1.50;;;;;;;;5137963;27;45362;-85
2021/12/29 13:57:58;;;;;;;;;2.75;2.75;;;;;;;;5119188;27;45439;-85
2021/12/29 14:00:23;;;;;;;;;2.00;2.00;;;;;;;;5119156;27;45644;-80
2021/12/29 14:02:49;;;;;;;;;1.00;1.00;;;;;;;;5118801;27;48061;-84
2021/12/29 14:05:15;;;;;;;;;0.25;0.25;;;;;;;;5119057;27;45671;-84
2021/12/29 14:07:40;;;;;;;;;2.50;2.00;;;;;;;;5137336;27;45496;-82
2021/12/29 14:10:06;;;;;;;;;2.00;2.00;;;;;;;;5119147;27;45773;-84
2021/12/29 14:12:35;;;;;;;;;1.00;1.00;;;;;;;;5137040;27;45946;-82
2021/12/29 14:15:02;;;;;;;;;3.00;2.00;;;;;;;;5137396;27;45978;-84
2021/12/29 14:17:27;;;;;;;;;2.75;2.75;;;;;;;;5118865;27;45368;-82
2021/12/29 14:19:53;;;;;;;;;2.33;2.33;;;;;;;;5137568;27;45383;-81
2021/12/29 14:22:22;;;;;;;;;1.00;1.00;;;;;;;;5118523;27;47978;-81
2021/12/29 14:24:48;;;;;;;;;1.00;1.00;;;;;;;;5136949;27;45471;-82
2021/12/29 14:27:20;;;;;;;;;1.00;1.00;;;;;;;;5118763;27;45720;-85
2021/12/29 14:29:46;;;;;;;;;1.00;1.00;;;;;;;;5137228;27;45309;-81
2021/12/29 14:32:12;;;;;;;;;1.00;1.00;;;;;;;;5118392;27;47118;-82
2021/12/29 14:34:41;;;;;;;;;1.00;1.00;;;;;;;;5136886;27;45269;-84
2021/12/29 14:37:10;;;;;;;;;1.00;1.00;;;;;;;;5137211;27;45313;-81
2021/12/29 14:39:36;;;;;;;;;2.00;2.00;;;;;;;;5136650;27;45494;-81